Time;durP1;ratioP1;P1;durP2;ratioP2;P2;SDS_P1;SDS_P2;PMS_P1;PMS_P2;Temp;Humidity;BMP_temperature;BMP_pressure;BME280_temperature;BME280_humidity;BME280_pressure;Samples;Min_cycle;Max_cycle;Signal;HPM_P1;HPM_P2
2022/06/28 00:00:08;;;;;;;;;;;;;;;17.07;47.24;100632.31;4959995;28;2326;-44
2022/06/28 00:02:33;;;;;;;;;;;;;;;17.06;46.94;100624.34;4960208;29;1078;-45
2022/06/28 00:04:59;;;;;;;;;;;;;;;17.03;47.05;100625.72;4962415;28;1204;-43
2022/06/28 00:07:24;;;;;;;;;;;;;;;17.16;47.64;100629.78;4959181;28;1976;-46
2022/06/28 00:09:50;;;;;;;;;;;;;;;17.39;48.97;100621.97;4959827;29;1098;-48
2022/06/28 00:12:15;;;;;;;;;;;;;;;17.19;48.77;100617.41;4960190;28;1030;-46
2022/06/28 00:17:25;;;;;;;;;;;;;;;17.13;47.93;100629.53;4962105;28;1137;-46
2022/06/28 00:19:50;;;;;;;;;;;;;;;17.06;47.91;100618.84;4959767;28;1161;-46
2022/06/28 00:22:16;;;;;;;;;;;;;;;17.03;47.47;100614.72;4958928;28;1042;-45
2022/06/28 00:24:41;;;;;;;;;;;;;;;17.97;48.29;100613.13;4959818;29;1081;-46
2022/06/28 00:27:06;;;;;;;;;;;;;;;17.36;48.96;100620.66;4959659;29;1914;-45
2022/06/28 00:29:32;;;;;;;;;;;;;;;17.19;48.47;100617.41;4959329;28;1018;-43
2022/06/28 00:31:57;;;;;;;;;;;;;;;17.14;48.36;100623.78;4959137;28;1145;-45
2022/06/28 00:34:23;;;;;;;;;;;;;;;17.12;48.03;100623.22;4958986;29;1078;-43
2022/06/28 00:36:49;;;;;;;;;;;;;;;17.06;47.52;100619.66;4958530;28;1295;-47
2022/06/28 00:39:14;;;;;;;;;;;;;;;17.07;47.38;100618.56;4959642;28;971;-46
2022/06/28 00:41:40;;;;;;;;;;;;;;;17.04;47.40;100621.88;4959272;29;1082;-46
2022/06/28 00:44:05;;;;;;;;;;;;;;;17.02;47.25;100618.56;4959357;28;967;-48
2022/06/28 00:46:33;;;;;;;;;;;;;;;17.03;46.96;100625.72;4941765;29;1918;-43
2022/06/28 00:48:59;;;;;;;;;;;;;;;17.02;47.07;100624.06;4959047;28;1050;-46
2022/06/28 00:51:24;;;;;;;;;;;;;;;17.77;47.87;100623.16;4958174;28;1149;-45
2022/06/28 00:53:50;;;;;;;;;;;;;;;17.39;48.61;100611.84;4959494;28;1050;-44
2022/06/28 00:56:15;;;;;;;;;;;;;;;17.22;48.19;100606.69;4947225;28;1500;-46
2022/06/28 00:58:41;;;;;;;;;;;;;;;17.14;47.93;100606.44;4941099;29;1003;-45
2022/06/28 01:01:06;;;;;;;;;;;;;;;17.05;47.88;100619.94;4958419;28;2330;-45
2022/06/28 01:03:32;;;;;;;;;;;;;;;17.05;47.39;100633.69;4962008;28;1193;-45
2022/06/28 01:05:57;;;;;;;;;;;;;;;17.07;47.18;100621.31;4959211;28;1914;-44
2022/06/28 01:08:26;;;;;;;;;;;;;;;17.03;47.32;100631.22;4941807;29;1211;-43
2022/06/28 01:10:51;;;;;;;;;;;;;;;17.90;47.73;100626.38;4959005;28;1181;-44
2022/06/28 01:13:18;;;;;;;;;;;;;;;17.50;48.90;100628.25;4941540;29;1141;-45
2022/06/28 01:15:47;;;;;;;;;;;;;;;17.32;48.65;100625.06;4941511;29;1177;-45
2022/06/28 01:18:13;;;;;;;;;;;;;;;17.22;48.09;100627.84;4941299;29;1108;-44
2022/06/28 01:20:48;;;;;;;;;;;;;;;17.16;47.92;100628.97;4958377;28;1232;-46
2022/06/28 01:23:35;;;;;;;;;;;;;;;17.09;47.46;100632.03;4940890;29;1480;-43
2022/06/28 01:26:11;;;;;;;;;;;;;;;17.76;48.53;100638.00;4941544;29;1976;-44
2022/06/28 01:28:41;;;;;;;;;;;;;;;17.35;48.98;100634.66;4926120;29;1217;-42
2022/06/28 01:31:18;;;;;;;;;;;;;;;17.28;48.13;100637.72;4941269;29;2507;-45
2022/06/28 01:33:44;;;;;;;;;;;;;;;17.16;48.09;100643.53;4950903;29;1419;-44
2022/06/28 01:36:14;;;;;;;;;;;;;;;17.15;47.69;100643.81;4941063;29;1089;-45
2022/06/28 01:38:39;;;;;;;;;;;;;;;17.09;47.54;100646.56;4940722;29;1275;-47
2022/06/28 01:41:05;;;;;;;;;;;;;;;17.03;47.05;100653.19;4940859;29;1098;-47
2022/06/28 01:43:32;;;;;;;;;;;;;;;17.03;47.20;100644.94;4941250;29;1164;-49
2022/06/28 01:45:57;;;;;;;;;;;;;;;17.75;48.09;100646.53;4957908;28;1975;-45
2022/06/28 01:48:24;;;;;;;;;;;;;;;17.29;48.82;100650.34;4958361;29;1058;-46
2022/06/28 01:51:01;;;;;;;;;;;;;;;17.20;48.08;100646.56;4926236;28;1097;-44
2022/06/28 01:53:27;;;;;;;;;;;;;;;17.14;47.84;100636.66;4946566;28;1268;-46
2022/06/28 01:55:59;;;;;;;;;;;;;;;17.17;47.52;100630.63;4940998;29;1350;-46
2022/06/28 01:58:54;;;;;;;;;;;;;;;17.06;47.46;100632.59;4950031;29;1433;-46
2022/06/28 02:01:24;;;;;;;;;;;;;;;17.03;47.16;100639.47;4940504;29;2530;-43
2022/06/28 02:03:52;;;;;;;;;;;;;;;17.02;47.18;100628.75;4940797;29;1009;-42
2022/06/28 02:06:30;;;;;;;;;;;;;;;17.38;47.38;100634.09;4939984;29;1918;-42
2022/06/28 02:09:02;;;;;;;;;;;;;;;17.63;48.75;100633.16;4944962;28;1360;-44
2022/06/28 02:11:36;;;;;;;;;;;;;;;17.26;48.62;100631.66;4940878;29;1176;-48
2022/06/28 02:14:02;;;;;;;;;;;;;;;17.17;48.25;100634.19;4940542;29;1213;-45
2022/06/28 02:16:27;;;;;;;;;;;;;;;17.78;48.76;100630.28;4939823;29;1113;-49
2022/06/28 02:18:53;;;;;;;;;;;;;;;17.62;49.31;100637.00;4940457;29;1086;-47
2022/06/28 02:21:18;;;;;;;;;;;;;;;17.39;48.68;100631.06;4957786;28;845;-46
2022/06/28 02:23:43;;;;;;;;;;;;;;;17.33;48.18;100634.94;4940332;29;1423;-46
2022/06/28 02:26:11;;;;;;;;;;;;;;;17.19;48.22;100633.91;4940522;29;1910;-44
2022/06/28 02:28:37;;;;;;;;;;;;;;;17.16;47.50;100624.28;4957387;29;832;-43
2022/06/28 02:31:12;;;;;;;;;;;;;;;17.10;47.30;100628.19;4957672;28;2530;-49
2022/06/28 02:33:37;;;;;;;;;;;;;;;17.10;47.18;100628.19;4957309;28;1208;-43
2022/06/28 02:41:31;;;;;;;;;;;;;;;17.45;48.44;100631.88;4957021;29;1168;-43
2022/06/28 02:43:56;;;;;;;;;;;;;;;17.24;48.03;100642.13;4940393;29;1127;-46
2022/06/28 02:46:22;;;;;;;;;;;;;;;17.22;47.78;100641.56;4957757;28;1926;-43
2022/06/28 02:48:47;;;;;;;;;;;;;;;17.09;47.53;100638.31;4957057;29;976;-44
2022/06/28 02:51:13;;;;;;;;;;;;;;;17.02;47.17;100642.50;4939347;28;1209;-46
2022/06/28 02:53:38;;;;;;;;;;;;;;;17.00;46.96;100648.25;4956971;28;1129;-43
2022/06/28 02:56:04;;;;;;;;;;;;;;;17.06;46.74;100652.63;4956665;29;995;-46
2022/06/28 02:58:29;;;;;;;;;;;;;;;17.75;47.88;100644.63;4957512;28;1165;-42
2022/06/28 03:00:55;;;;;;;;;;;;;;;17.36;48.03;100645.38;4940060;29;2370;-46
2022/06/28 03:03:20;;;;;;;;;;;;;;;17.25;47.94;100646.50;4940070;29;1244;-42
2022/06/28 03:05:46;;;;;;;;;;;;;;;17.15;47.38;100657.53;4955918;28;1914;-48
2022/06/28 03:08:12;;;;;;;;;;;;;;;17.12;47.12;100660.88;4957369;28;923;-45
2022/06/28 03:10:38;;;;;;;;;;;;;;;17.09;46.98;100667.72;4939663;29;1035;-45
2022/06/28 03:13:04;;;;;;;;;;;;;;;18.03;47.44;100669.75;4940154;29;1189;-48
2022/06/28 03:15:30;;;;;;;;;;;;;;;17.32;48.59;100666.28;4940041;29;1141;-44
2022/06/28 03:17:55;;;;;;;;;;;;;;;17.22;48.08;100671.81;4954388;28;1534;-49
2022/06/28 03:20:21;;;;;;;;;;;;;;;17.19;47.45;100673.19;4960623;28;952;-45
2022/06/28 03:22:46;;;;;;;;;;;;;;;17.13;47.34;100676.25;4960983;29;1031;-47
2022/06/28 03:25:12;;;;;;;;;;;;;;;17.07;47.29;100678.19;4963126;28;1200;-44
2022/06/28 03:27:37;;;;;;;;;;;;;;;17.03;47.11;100677.91;4943608;29;1898;-47
2022/06/28 03:30:03;;;;;;;;;;;;;;;16.98;46.86;100686.16;4960144;28;2468;-48
2022/06/28 03:32:29;;;;;;;;;;;;;;;17.27;47.10;100696.53;4927634;29;1286;-48
2022/06/28 03:34:56;;;;;;;;;;;;;;;17.55;48.45;100695.03;4943255;29;1129;-45
2022/06/28 03:37:23;;;;;;;;;;;;;;;17.18;48.58;100703.69;4942970;29;1152;-44
2022/06/28 03:39:52;;;;;;;;;;;;;;;17.15;48.10;100707.00;4943406;28;1251;-48
2022/06/28 03:42:19;;;;;;;;;;;;;;;17.23;47.40;100706.44;4946943;29;1518;-49
2022/06/28 03:44:48;;;;;;;;;;;;;;;17.08;47.41;100710.88;4929718;29;1449;-47
2022/06/28 03:47:13;;;;;;;;;;;;;;;17.06;47.26;100712.25;4943161;29;1907;-45
2022/06/28 03:49:45;;;;;;;;;;;;;;;17.08;47.33;100716.38;4961714;28;1406;-47
2022/06/28 03:52:19;;;;;;;;;;;;;;;17.08;48.03;100719.13;4942598;29;1526;-49
2022/06/28 03:55:06;;;;;;;;;;;;;;;17.03;47.82;100724.63;4960690;28;1061;-48
2022/06/28 03:57:40;;;;;;;;;;;;;;;17.01;47.56;100726.84;4937652;29;1197;-45
2022/06/28 04:00:07;;;;;;;;;;;;;;;16.96;47.31;100734.22;4943900;28;2724;-47
2022/06/28 04:02:38;;;;;;;;;;;;;;;17.06;48.22;100735.03;4956317;28;1211;-47
2022/06/28 04:05:05;;;;;;;;;;;;;;;17.61;48.49;100731.56;4959656;29;1075;-49
2022/06/28 04:07:31;;;;;;;;;;;;;;;17.51;48.19;100726.13;4938231;29;1918;-50
2022/06/28 04:09:56;;;;;;;;;;;;;;;17.39;48.58;100726.44;4942985;29;1169;-52
2022/06/28 04:12:22;;;;;;;;;;;;;;;17.26;48.54;100752.59;4960348;29;1146;-51
2022/06/28 04:14:48;;;;;;;;;;;;;;;17.32;49.23;100743.25;4937206;29;1156;-51
2022/06/28 04:17:14;;;;;;;;;;;;;;;17.30;48.83;100739.94;4945732;28;1070;-46
2022/06/28 04:20:03;;;;;;;;;;;;;;;17.27;48.70;100740.50;4928924;29;1237;-47
2022/06/28 04:22:33;;;;;;;;;;;;;;;17.22;48.74;100729.50;4942838;28;1230;-47
2022/06/28 04:24:58;;;;;;;;;;;;;;;17.13;48.94;100739.44;4959953;28;1054;-48
2022/06/28 04:27:38;;;;;;;;;;;;;;;17.20;48.58;100732.53;4942328;28;1991;-48
2022/06/28 04:30:04;;;;;;;;;;;;;;;17.04;48.91;100737.25;4960229;29;2700;-47
2022/06/28 04:32:45;;;;;;;;;;;;;;;17.13;48.64;100725.72;4954159;28;2066;-46
2022/06/28 04:35:10;;;;;;;;;;;;;;;17.03;48.62;100738.34;4942237;29;1141;-44
2022/06/28 04:37:37;;;;;;;;;;;;;;;17.03;48.85;100727.38;4942735;29;1141;-47
2022/06/28 04:40:14;;;;;;;;;;;;;;;17.08;48.53;100732.84;4944495;28;1170;-47
2022/06/28 04:42:49;;;;;;;;;;;;;;;17.03;48.71;100735.59;4953996;28;1220;-47
2022/06/28 04:45:15;;;;;;;;;;;;;;;17.04;48.38;100729.03;4953475;28;1217;-41
2022/06/28 04:47:54;;;;;;;;;;;;;;;17.02;48.68;100736.69;4954655;28;1982;-46
2022/06/28 04:50:19;;;;;;;;;;;;;;;16.97;48.90;100731.22;4956304;28;1522;-48
2022/06/28 04:52:45;;;;;;;;;;;;;;;16.97;48.82;100731.22;4938859;28;1600;-48
2022/06/28 04:55:10;;;;;;;;;;;;;;;16.96;48.58;100740.56;4944049;29;1469;-48
2022/06/28 04:57:44;;;;;;;;;;;;;;;16.87;48.80;100736.69;4942495;29;1118;-44
2022/06/28 05:00:14;;;;;;;;;;;;;;;16.99;48.62;100741.94;4940572;28;1516;-47
2022/06/28 05:02:44;;;;;;;;;;;;;;;16.87;48.97;100739.44;4947035;28;1149;-49
2022/06/28 05:05:29;;;;;;;;;;;;;;;16.92;48.60;100742.22;4954794;28;1396;-47
2022/06/28 05:07:55;;;;;;;;;;;;;;;16.86;48.92;100751.53;4943423;28;1970;-46
2022/06/28 05:10:25;;;;;;;;;;;;;;;16.88;48.75;100752.91;4941717;29;1486;-44
2022/06/28 05:13:06;;;;;;;;;;;;;;;16.81;48.96;100754.28;4941110;28;1628;-46
2022/06/28 05:15:32;;;;;;;;;;;;;;;16.73;49.22;100750.16;4953873;29;1224;-45
2022/06/28 05:18:03;;;;;;;;;;;;;;;16.85;49.00;100749.88;4941695;29;1240;-47
2022/06/28 05:20:29;;;;;;;;;;;;;;;16.89;48.92;100767.50;4941929;29;1407;-48
2022/06/28 05:22:54;;;;;;;;;;;;;;;16.86;48.78;100763.34;4941604;29;999;-48
2022/06/28 05:25:43;;;;;;;;;;;;;;;16.82;48.91;100755.94;4918850;29;1907;-45
2022/06/28 05:28:08;;;;;;;;;;;;;;;16.84;48.83;100764.72;4941576;29;1149;-47
2022/06/28 05:30:34;;;;;;;;;;;;;;;16.81;49.06;100757.84;4941743;29;1133;-44
2022/06/28 05:33:01;;;;;;;;;;;;;;;16.57;49.42;100761.13;4958309;28;1177;-46
2022/06/28 05:35:26;;;;;;;;;;;;;;;16.45;49.34;100751.53;4953703;28;1082;-47
2022/06/28 05:37:52;;;;;;;;;;;;;;;17.25;50.04;100759.19;4940572;29;1089;-45
2022/06/28 05:40:18;;;;;;;;;;;;;;;17.16;50.77;100766.34;4961676;28;1173;-47
2022/06/28 05:42:43;;;;;;;;;;;;;;;16.84;50.61;100760.03;4941274;28;1243;-48
2022/06/28 05:45:09;;;;;;;;;;;;;;;16.77;49.94;100765.81;4944110;29;1264;-48
2022/06/28 05:47:34;;;;;;;;;;;;;;;17.51;50.69;100761.88;4941183;29;2027;-44
2022/06/28 05:50:00;;;;;;;;;;;;;;;17.17;50.51;100757.03;4958989;28;983;-47
2022/06/28 05:52:25;;;;;;;;;;;;;;;17.09;49.92;100761.97;4957613;28;1196;-44
2022/06/28 05:54:51;;;;;;;;;;;;;;;17.47;49.40;100764.34;4947220;28;1498;-45
2022/06/28 05:57:16;;;;;;;;;;;;;;;18.01;48.72;100765.53;4945784;29;1291;-44
2022/06/28 05:59:42;;;;;;;;;;;;;;;17.62;50.04;100758.78;4939322;28;1169;-47
2022/06/28 06:02:08;;;;;;;;;;;;;;;17.44;50.84;100762.16;4953790;28;1297;-44
2022/06/28 06:04:33;;;;;;;;;;;;;;;17.32;51.47;100767.13;4961925;28;1145;-48
2022/06/28 06:06:59;;;;;;;;;;;;;;;17.31;52.02;100769.06;4958320;28;1914;-48
2022/06/28 06:09:24;;;;;;;;;;;;;;;17.21;52.33;100760.88;4943129;28;1169;-43
2022/06/28 06:11:50;;;;;;;;;;;;;;;17.16;52.89;100752.63;4956418;28;1304;-47
2022/06/28 06:14:16;;;;;;;;;;;;;;;17.11;53.37;100758.97;4947861;28;1241;-46
2022/06/28 06:16:41;;;;;;;;;;;;;;;17.08;53.62;100768.56;4971581;28;1339;-47
2022/06/28 06:19:07;;;;;;;;;;;;;;;17.07;53.94;100757.88;4948684;28;1389;-47
2022/06/28 06:21:32;;;;;;;;;;;;;;;17.04;54.39;100761.13;4937825;28;1626;-46
2022/06/28 06:23:58;;;;;;;;;;;;;;;16.99;54.63;100761.97;4964660;28;1028;-44
2022/06/28 06:26:49;;;;;;;;;;;;;;;16.95;54.81;100760.88;4952966;28;1969;-47
2022/06/28 06:29:14;;;;;;;;;;;;;;;17.04;55.90;100759.25;4940918;29;1190;-45
2022/06/28 06:31:40;;;;;;;;;;;;;;;16.93;55.97;100758.41;4929337;28;1465;-51
2022/06/28 06:34:24;;;;;;;;;;;;;;;16.92;56.20;100761.44;4958153;29;1174;-40
2022/06/28 06:36:54;;;;;;;;;;;;;;;16.91;56.13;100765.28;4942020;29;1148;-46
2022/06/28 06:39:20;;;;;;;;;;;;;;;16.88;56.33;100761.16;4965469;28;1370;-48
2022/06/28 06:41:45;;;;;;;;;;;;;;;16.83;56.49;100757.56;4940917;29;1181;-44
2022/06/28 06:44:11;;;;;;;;;;;;;;;16.81;56.36;100766.09;4962982;28;1026;-46
2022/06/28 06:46:40;;;;;;;;;;;;;;;16.79;56.44;100765.53;4957642;29;1902;-43
2022/06/28 06:49:05;;;;;;;;;;;;;;;16.80;56.65;100771.84;4968738;28;2678;-41
2022/06/28 06:51:31;;;;;;;;;;;;;;;16.78;56.53;100766.63;4941001;29;1317;-44
2022/06/28 06:53:56;;;;;;;;;;;;;;;16.75;56.63;100778.19;4944316;29;1294;-41
2022/06/28 06:56:22;;;;;;;;;;;;;;;16.73;56.63;100778.47;4944520;29;1205;-42
2022/06/28 06:58:48;;;;;;;;;;;;;;;16.69;57.07;100779.25;4944505;29;1226;-48
2022/06/28 07:01:13;;;;;;;;;;;;;;;16.67;56.88;100782.28;4970561;28;1207;-43
2022/06/28 07:03:44;;;;;;;;;;;;;;;16.67;56.90;100785.03;4944601;28;1145;-40
2022/06/28 07:06:13;;;;;;;;;;;;;;;16.67;57.03;100782.28;4944624;29;1902;-43
2022/06/28 07:08:38;;;;;;;;;;;;;;;16.67;57.13;100776.78;4960889;29;1185;-45
2022/06/28 07:11:04;;;;;;;;;;;;;;;16.67;56.98;100782.28;4973138;28;1212;-43
2022/06/28 07:13:29;;;;;;;;;;;;;;;16.63;57.12;100786.66;4944496;29;1302;-44
2022/06/28 07:15:55;;;;;;;;;;;;;;;16.60;57.33;100776.25;4943226;29;1158;-43
2022/06/28 07:18:21;;;;;;;;;;;;;;;16.62;57.28;100789.69;4944117;29;1133;-46
2022/06/28 07:20:48;;;;;;;;;;;;;;;16.64;57.22;100787.50;4943572;28;1126;-46
2022/06/28 07:23:13;;;;;;;;;;;;;;;16.60;57.51;100784.47;4961165;28;1130;-40
2022/06/28 07:25:40;;;;;;;;;;;;;;;16.56;57.40;100786.13;4944051;28;1993;-39
2022/06/28 07:28:08;;;;;;;;;;;;;;;16.57;57.63;100785.03;4943965;28;1284;-45
2022/06/28 07:30:34;;;;;;;;;;;;;;;16.56;57.43;100770.50;4965952;28;1240;-44
2022/06/28 07:33:00;;;;;;;;;;;;;;;16.55;57.47;100785.31;4938284;28;1157;-44
2022/06/28 07:35:26;;;;;;;;;;;;;;;16.55;57.62;100784.47;4950423;28;2042;-45
2022/06/28 07:37:52;;;;;;;;;;;;;;;16.55;57.65;100789.97;4959121;29;991;-45
2022/06/28 07:40:32;;;;;;;;;;;;;;;16.55;57.51;100778.97;4964491;28;1243;-41
2022/06/28 07:43:16;;;;;;;;;;;;;;;16.57;57.47;100771.31;4960902;28;1125;-41
2022/06/28 07:45:44;;;;;;;;;;;;;;;16.53;57.50;100778.44;4943718;28;1977;-43
2022/06/28 07:48:16;;;;;;;;;;;;;;;16.54;57.36;100780.91;4944162;29;1217;-46
2022/06/28 07:53:25;;;;;;;;;;;;;;;16.50;57.47;100789.97;4943460;29;1261;-43
2022/06/28 07:56:09;;;;;;;;;;;;;;;16.48;57.81;100778.41;4943545;29;1263;-40
2022/06/28 07:58:39;;;;;;;;;;;;;;;16.51;57.49;100780.63;4961173;28;1288;-41
2022/06/28 08:01:08;;;;;;;;;;;;;;;16.46;57.49;100775.13;4943672;29;1409;-45
2022/06/28 08:03:34;;;;;;;;;;;;;;;16.48;57.45;100776.53;4942232;29;1913;-46
2022/06/28 08:06:00;;;;;;;;;;;;;;;16.48;57.54;100773.78;4943610;29;1902;-44
2022/06/28 08:08:31;;;;;;;;;;;;;;;16.42;57.66;100769.34;4943205;29;1215;-42
2022/06/28 08:10:57;;;;;;;;;;;;;;;16.46;57.76;100772.41;4943254;29;1254;-43
2022/06/28 08:13:22;;;;;;;;;;;;;;;16.42;57.78;100769.34;4954935;28;976;-45
2022/06/28 08:15:48;;;;;;;;;;;;;;;16.45;57.65;100771.56;4957529;28;1237;-44
2022/06/28 08:18:13;;;;;;;;;;;;;;;16.46;57.65;100772.41;4957564;28;1582;-44
2022/06/28 08:20:39;;;;;;;;;;;;;;;16.42;57.82;100778.44;4960304;28;1360;-41
2022/06/28 08:23:06;;;;;;;;;;;;;;;16.41;57.81;100765.81;4961088;28;1362;-46
2022/06/28 08:25:33;;;;;;;;;;;;;;;16.38;57.78;100760.88;4941361;29;1903;-42
2022/06/28 08:27:58;;;;;;;;;;;;;;;16.43;57.64;100760.84;4942990;28;1906;-45
2022/06/28 08:30:25;;;;;;;;;;;;;;;16.42;57.58;100756.47;4946893;28;1321;-45
2022/06/28 08:32:51;;;;;;;;;;;;;;;16.40;57.43;100755.91;4959935;28;1304;-42
2022/06/28 08:35:17;;;;;;;;;;;;;;;16.43;57.44;100744.38;4954413;28;1228;-40
2022/06/28 08:37:43;;;;;;;;;;;;;;;16.40;57.44;100738.63;4960572;28;1244;-41
2022/06/28 08:40:08;;;;;;;;;;;;;;;16.38;57.64;100736.16;4959935;28;1160;-44
2022/06/28 08:42:34;;;;;;;;;;;;;;;16.39;57.67;100740.53;4960391;28;1247;-45
2022/06/28 08:45:00;;;;;;;;;;;;;;;16.38;57.50;100747.16;4958745;28;1160;-45
2022/06/28 08:47:26;;;;;;;;;;;;;;;16.38;57.88;100730.69;4959952;29;1992;-43
2022/06/28 08:49:55;;;;;;;;;;;;;;;16.39;57.84;100732.31;4962648;28;1141;-39
2022/06/28 08:52:23;;;;;;;;;;;;;;;16.37;57.97;100734.50;4961315;28;1090;-40
2022/06/28 08:54:50;;;;;;;;;;;;;;;16.39;57.65;100720.50;4958294;28;2351;-42
2022/06/28 08:57:16;;;;;;;;;;;;;;;16.39;57.83;100721.31;4970106;28;1850;-42
2022/06/28 08:59:42;;;;;;;;;;;;;;;16.40;57.83;100725.72;4942095;29;1993;-42
2022/06/28 09:02:07;;;;;;;;;;;;;;;16.40;57.60;100733.16;4954288;28;1992;-45
2022/06/28 09:04:32;;;;;;;;;;;;;;;16.37;57.70;100720.78;4941313;28;2747;-46
2022/06/28 09:06:58;;;;;;;;;;;;;;;16.38;57.82;100721.59;4961480;28;1978;-46
2022/06/28 09:09:24;;;;;;;;;;;;;;;16.36;57.65;100721.06;4969209;28;1852;-45
2022/06/28 09:11:50;;;;;;;;;;;;;;;16.36;57.72;100705.41;4962604;28;1931;-41
2022/06/28 09:14:20;;;;;;;;;;;;;;;16.35;57.84;100708.44;4959626;28;1154;-43
2022/06/28 09:16:45;;;;;;;;;;;;;;;16.35;57.60;100709.25;4955760;28;987;-40
2022/06/28 09:19:11;;;;;;;;;;;;;;;16.31;57.90;100710.06;4959130;28;943;-42
2022/06/28 09:21:40;;;;;;;;;;;;;;;16.35;57.55;100720.22;4958785;28;1035;-46
2022/06/28 09:24:07;;;;;;;;;;;;;;;16.31;57.76;100716.38;4953081;28;919;-44
2022/06/28 09:26:32;;;;;;;;;;;;;;;16.37;57.88;100714.50;4958629;28;1906;-42
2022/06/28 09:28:58;;;;;;;;;;;;;;;16.37;57.64;100715.31;4961872;28;928;-44
2022/06/28 09:31:24;;;;;;;;;;;;;;;16.35;57.93;100713.94;4961295;28;1108;-41
2022/06/28 09:33:59;;;;;;;;;;;;;;;16.34;57.66;100706.78;4941976;29;1078;-41
2022/06/28 09:36:24;;;;;;;;;;;;;;;16.32;57.92;100698.81;4958489;28;1168;-44
2022/06/28 09:38:50;;;;;;;;;;;;;;;16.38;57.52;100700.50;4959020;28;967;-46
2022/06/28 09:41:28;;;;;;;;;;;;;;;16.37;57.96;100696.09;4957038;28;1080;-43
2022/06/28 09:43:57;;;;;;;;;;;;;;;16.34;57.69;100691.16;4967172;28;1328;-43
2022/06/28 09:46:23;;;;;;;;;;;;;;;16.37;57.65;100692.53;4957002;28;1906;-43
2022/06/28 09:48:49;;;;;;;;;;;;;;;16.36;57.70;100694.44;4941101;28;963;-40
2022/06/28 09:51:19;;;;;;;;;;;;;;;16.37;57.58;100690.59;4959461;28;1066;-42
2022/06/28 09:53:45;;;;;;;;;;;;;;;16.37;57.70;100696.09;4939503;29;980;-46
2022/06/28 09:56:10;;;;;;;;;;;;;;;16.36;57.65;100694.44;4923167;28;1051;-44
2022/06/28 09:58:36;;;;;;;;;;;;;;;16.34;57.71;100691.16;4953549;28;955;-42
2022/06/28 10:01:01;;;;;;;;;;;;;;;16.37;57.81;100690.59;4940398;28;1073;-42
2022/06/28 10:03:26;;;;;;;;;;;;;;;16.36;57.58;100686.19;4958689;28;1040;-45
2022/06/28 10:05:54;;;;;;;;;;;;;;;16.31;57.74;100682.63;4962605;28;1910;-45
2022/06/28 10:08:19;;;;;;;;;;;;;;;16.31;57.70;100680.72;4958051;29;1063;-41
2022/06/28 10:10:45;;;;;;;;;;;;;;;16.35;57.88;100676.31;4958229;28;1042;-44
2022/06/28 10:15:57;;;;;;;;;;;;;;;16.30;57.71;100668.09;4957812;28;1134;-43
2022/06/28 10:18:22;;;;;;;;;;;;;;;16.33;57.66;100681.28;4941302;29;1023;-39
2022/06/28 10:20:48;;;;;;;;;;;;;;;16.34;57.89;100671.94;4940126;28;1285;-45
2022/06/28 10:23:25;;;;;;;;;;;;;;;16.29;57.59;100663.72;4958177;28;999;-45
2022/06/28 10:26:00;;;;;;;;;;;;;;;16.35;57.66;100664.53;4957401;28;1989;-43
2022/06/28 10:28:27;;;;;;;;;;;;;;;16.33;57.64;100662.06;4945289;28;1023;-39
2022/06/28 10:31:12;;;;;;;;;;;;;;;16.34;57.71;100663.72;4957990;28;895;-42
2022/06/28 10:33:41;;;;;;;;;;;;;;;16.33;57.90;100650.28;4957781;29;1517;-47
2022/06/28 10:36:15;;;;;;;;;;;;;;;16.31;57.74;100646.97;4957375;29;1030;-46
2022/06/28 10:38:59;;;;;;;;;;;;;;;16.34;57.52;100649.16;4957996;29;1067;-42
2022/06/28 10:41:44;;;;;;;;;;;;;;;16.32;57.86;100641.19;4959070;28;1081;-45
2022/06/28 10:44:14;;;;;;;;;;;;;;;16.31;57.75;100646.97;4957632;29;1015;-43
2022/06/28 10:46:39;;;;;;;;;;;;;;;16.34;57.52;100649.16;4958248;28;1971;-46
2022/06/28 10:49:06;;;;;;;;;;;;;;;16.34;57.51;100652.75;4940636;29;1086;-44
2022/06/28 10:51:31;;;;;;;;;;;;;;;16.32;57.55;100643.94;4956066;28;1068;-42
2022/06/28 10:53:57;;;;;;;;;;;;;;;16.33;57.89;100640.13;4957706;29;1073;-46
2022/06/28 10:56:25;;;;;;;;;;;;;;;16.33;57.58;100642.84;4957497;28;994;-44
2022/06/28 10:59:02;;;;;;;;;;;;;;;16.31;57.91;100625.81;4955462;28;885;-42
2022/06/28 11:01:40;;;;;;;;;;;;;;;16.28;57.75;100626.38;4957772;29;1001;-42
2022/06/28 11:04:23;;;;;;;;;;;;;;;16.28;57.90;100615.41;4957960;29;980;-42
2022/06/28 11:06:53;;;;;;;;;;;;;;;16.31;57.60;100625.81;4955921;28;1942;-41
2022/06/28 11:09:22;;;;;;;;;;;;;;;16.29;57.86;100611.56;4968699;28;1232;-43
2022/06/28 11:12:06;;;;;;;;;;;;;;;16.32;57.61;100626.66;4967571;28;1022;-41
2022/06/28 11:14:32;;;;;;;;;;;;;;;16.30;58.00;100624.19;4967065;28;1204;-43
2022/06/28 11:16:57;;;;;;;;;;;;;;;16.28;57.85;100626.38;4957023;28;1209;-43
2022/06/28 11:19:23;;;;;;;;;;;;;;;16.27;57.77;100629.41;4939927;29;1214;-45
2022/06/28 11:21:52;;;;;;;;;;;;;;;16.33;57.87;100628.31;4957289;28;915;-44
2022/06/28 11:24:17;;;;;;;;;;;;;;;17.60;57.13;100628.22;4957321;28;1125;-43
2022/06/28 11:29:27;;;;;;;;;;;;;;;16.79;58.53;100641.13;4957525;28;948;-43
2022/06/28 11:31:52;;;;;;;;;;;;;;;16.69;58.73;100636.50;4957589;29;987;-43
2022/06/28 11:34:22;;;;;;;;;;;;;;;16.66;58.51;100632.41;4957424;28;978;-44
2022/06/28 11:36:47;;;;;;;;;;;;;;;16.57;58.39;100625.81;4956949;28;845;-44
2022/06/28 11:39:19;;;;;;;;;;;;;;;16.58;58.09;100624.72;4960943;28;968;-43
2022/06/28 11:41:48;;;;;;;;;;;;;;;16.57;57.94;100625.81;4961122;28;1078;-44
2022/06/28 11:44:14;;;;;;;;;;;;;;;16.50;58.22;100617.88;4960855;28;1145;-44
2022/06/28 11:46:39;;;;;;;;;;;;;;;16.50;57.97;100623.34;4943963;29;1989;-42
2022/06/28 11:49:05;;;;;;;;;;;;;;;16.50;57.93;100617.88;4960239;29;1022;-40
2022/06/28 11:51:31;;;;;;;;;;;;;;;16.49;58.14;100615.41;4954495;28;1320;-43
2022/06/28 11:53:57;;;;;;;;;;;;;;;16.47;58.11;100617.59;4960396;28;964;-41
2022/06/28 11:56:22;;;;;;;;;;;;;;;16.47;57.97;100614.88;4960149;28;971;-43
2022/06/28 11:58:48;;;;;;;;;;;;;;;16.48;57.89;100613.75;4960915;29;1079;-44
2022/06/28 12:01:13;;;;;;;;;;;;;;;16.45;57.98;100625.28;4960260;28;1045;-42
2022/06/28 12:03:41;;;;;;;;;;;;;;;16.44;58.08;100640.94;4960399;29;1117;-40
2022/06/28 12:06:07;;;;;;;;;;;;;;;16.40;58.08;100651.63;4957730;28;1965;-43
2022/06/28 12:08:45;;;;;;;;;;;;;;;16.43;57.83;100667.53;4960439;29;1066;-42
2022/06/28 12:11:30;;;;;;;;;;;;;;;16.42;57.94;100707.06;4960506;28;1185;-44
2022/06/28 12:13:58;;;;;;;;;;;;;;;16.36;58.23;100726.56;4959901;28;1153;-41
2022/06/28 12:16:27;;;;;;;;;;;;;;;16.27;58.52;100748.22;4959391;28;1221;-47
2022/06/28 12:18:53;;;;;;;;;;;;;;;16.26;58.16;100752.06;4960242;28;1074;-47
2022/06/28 12:21:19;;;;;;;;;;;;;;;16.61;58.98;100821.81;4959945;29;1208;-47
2022/06/28 12:23:47;;;;;;;;;;;;;;;17.37;58.93;100772.63;4960104;28;1098;-47
2022/06/28 12:26:13;;;;;;;;;;;;;;;16.85;59.28;100788.34;4959781;28;1914;-42
2022/06/28 12:28:38;;;;;;;;;;;;;;;16.64;59.28;100771.84;4942766;29;1145;-44
2022/06/28 12:31:04;;;;;;;;;;;;;;;16.60;58.67;100770.75;4960309;28;1172;-46
2022/06/28 12:33:29;;;;;;;;;;;;;;;16.52;58.67;100758.41;4942633;29;1055;-45
2022/06/28 12:35:54;;;;;;;;;;;;;;;16.49;58.55;100749.88;4959538;29;1141;-44
2022/06/28 12:38:20;;;;;;;;;;;;;;;16.42;58.46;100748.25;4958881;29;1251;-46
2022/06/28 12:40:45;;;;;;;;;;;;;;;16.40;57.96;100733.16;4959218;29;871;-45
2022/06/28 12:43:11;;;;;;;;;;;;;;;16.37;58.01;100733.69;4959993;28;1007;-43
2022/06/28 12:45:36;;;;;;;;;;;;;;;16.33;57.95;100738.09;4959842;29;987;-44
2022/06/28 12:48:02;;;;;;;;;;;;;;;16.26;58.02;100735.59;4959849;28;1975;-44
2022/06/28 12:50:27;;;;;;;;;;;;;;;17.48;58.87;100730.25;4958884;28;1057;-47
2022/06/28 12:52:52;;;;;;;;;;;;;;;16.99;59.75;100728.22;4958632;28;1188;-47
2022/06/28 12:55:18;;;;;;;;;;;;;;;16.75;59.44;100729.56;4959478;28;1145;-43
2022/06/28 12:57:44;;;;;;;;;;;;;;;16.66;58.90;100720.25;4959578;28;1002;-43
2022/06/28 13:00:10;;;;;;;;;;;;;;;16.56;58.61;100720.25;4958921;28;1204;-45
2022/06/28 13:02:36;;;;;;;;;;;;;;;16.55;58.43;100727.66;4964649;28;2493;-45
2022/06/28 13:05:01;;;;;;;;;;;;;;;16.42;58.32;100720.81;4958992;28;1037;-46
2022/06/28 13:07:27;;;;;;;;;;;;;;;16.47;58.21;100728.19;4958112;28;1970;-44